Time;durP1;ratioP1;P1;durP2;ratioP2;P2;SDS_P1;SDS_P2;PMS_P1;PMS_P2;Temp;Humidity;BMP_temperature;BMP_pressure;BME280_temperature;BME280_humidity;BME280_pressure;Samples;Min_cycle;Max_cycle;Signal;HPM_P1;HPM_P2
2022/03/11 00:00:00;;;;;;;;;;;;;;;3.90;27.97;100676.00;4498721;31;34311;-80
2022/03/11 00:02:29;;;;;;;;;;;;;;;4.44;27.01;100676.81;4498339;31;34382;-80
2022/03/11 00:04:57;;;;;;;;;;;;;;;5.06;26.23;100671.97;4498673;31;34386;-80
2022/03/11 00:07:24;;;;;;;;;;;;;;;3.29;28.18;100678.06;4498393;31;33568;-82
2022/03/11 00:09:53;;;;;;;;;;;;;;;2.74;29.32;100679.53;4498383;31;34295;-80
2022/03/11 00:12:20;;;;;;;;;;;;;;;2.63;29.23;100685.56;4498839;31;34391;-80
2022/03/11 00:14:47;;;;;;;;;;;;;;;2.76;29.04;100679.59;4497790;31;34605;-79
2022/03/11 00:17:14;;;;;;;;;;;;;;;3.32;28.30;100679.97;4497915;31;33676;-79
2022/03/11 00:19:42;;;;;;;;;;;;;;;3.52;27.96;100681.25;4498431;31;34051;-80
2022/03/11 00:22:10;;;;;;;;;;;;;;;4.50;27.40;100690.00;4498618;31;35136;-80
2022/03/11 00:24:37;;;;;;;;;;;;;;;4.29;26.55;100682.78;4498027;31;34519;-80
2022/03/11 00:27:04;;;;;;;;;;;;;;;4.07;26.94;100689.91;4498246;31;33469;-79
2022/03/11 00:29:32;;;;;;;;;;;;;;;3.18;28.35;100684.16;4498540;31;34297;-83
2022/03/11 00:31:59;;;;;;;;;;;;;;;3.00;28.17;100688.09;4487444;31;34367;-78
2022/03/11 00:34:26;;;;;;;;;;;;;;;3.96;27.57;100680.66;4498175;31;35746;-80
2022/03/11 00:36:54;;;;;;;;;;;;;;;4.35;27.48;100680.56;4497750;31;34993;-82
2022/03/11 00:39:22;;;;;;;;;;;;;;;5.11;26.56;100676.59;4498096;31;34973;-80
2022/03/11 00:41:50;;;;;;;;;;;;;;;3.60;27.25;100673.28;4498495;31;34128;-79
2022/03/11 00:44:17;;;;;;;;;;;;;;;4.94;26.38;100671.25;4496501;31;35376;-80
2022/03/11 00:46:45;;;;;;;;;;;;;;;5.37;26.32;100665.22;4497616;31;33434;-81
2022/03/11 00:49:12;;;;;;;;;;;;;;;4.71;26.80;100673.34;4498096;31;33987;-80
2022/03/11 00:51:40;;;;;;;;;;;;;;;4.95;26.32;100673.91;4498040;31;34338;-81
2022/03/11 00:54:07;;;;;;;;;;;;;;;5.66;25.23;100670.28;4497481;31;35020;-80
2022/03/11 00:56:35;;;;;;;;;;;;;;;5.54;25.67;100667.91;4497496;31;33366;-84
2022/03/11 00:59:02;;;;;;;;;;;;;;;5.40;25.81;100664.53;4497443;31;34329;-82
2022/03/11 01:01:29;;;;;;;;;;;;;;;6.05;24.87;100659.62;4498039;31;34439;-80
2022/03/11 01:03:57;;;;;;;;;;;;;;;5.66;25.12;100662.56;4499303;31;35318;-81
2022/03/11 01:06:24;;;;;;;;;;;;;;;5.36;25.79;100660.87;4500242;31;33512;-80
2022/03/11 01:08:51;;;;;;;;;;;;;;;6.51;24.11;100656.06;4499863;31;33648;-81
2022/03/11 01:11:19;;;;;;;;;;;;;;;5.13;25.20;100663.81;4500082;31;33951;-80
2022/03/11 01:13:46;;;;;;;;;;;;;;;6.02;24.35;100658.56;4499966;31;35108;-80
2022/03/11 01:16:13;;;;;;;;;;;;;;;4.57;25.67;100667.34;4499570;31;34431;-79
2022/03/11 01:18:41;;;;;;;;;;;;;;;5.69;24.62;100662.72;4500232;31;34142;-80
2022/03/11 01:21:10;;;;;;;;;;;;;;;4.27;25.72;100662.91;4499674;31;33971;-80
2022/03/11 01:23:37;;;;;;;;;;;;;;;4.77;25.20;100667.66;4499105;31;34272;-79
2022/03/11 01:26:05;;;;;;;;;;;;;;;4.33;25.87;100669.31;4500085;31;33498;-78
2022/03/11 01:28:32;;;;;;;;;;;;;;;3.87;26.66;100666.47;4499247;31;34370;-78
2022/03/11 01:30:59;;;;;;;;;;;;;;;3.75;27.00;100665.69;4499285;31;35187;-79
2022/03/11 01:33:28;;;;;;;;;;;;;;;3.77;26.56;100671.78;4499815;31;35150;-79
2022/03/11 01:35:55;;;;;;;;;;;;;;;3.95;26.43;100669.50;4499872;31;33361;-80
2022/03/11 01:38:22;;;;;;;;;;;;;;;4.86;25.25;100653.69;4499547;31;34303;-81
2022/03/11 01:40:49;;;;;;;;;;;;;;;4.56;25.82;100657.87;4499546;31;35303;-80
2022/03/11 01:43:20;;;;;;;;;;;;;;;4.56;25.59;100650.19;4499630;31;34258;-79
2022/03/11 01:45:47;;;;;;;;;;;;;;;4.96;25.25;100649.09;4499717;31;33651;-80
2022/03/11 01:48:15;;;;;;;;;;;;;;;5.03;25.16;100648.66;4500178;31;34286;-79
2022/03/11 01:50:42;;;;;;;;;;;;;;;4.44;25.80;100661.41;4499308;31;35266;-79
2022/03/11 01:53:10;;;;;;;;;;;;;;;4.00;26.31;100654.41;4499649;31;34577;-80
2022/03/11 01:55:38;;;;;;;;;;;;;;;5.02;25.45;100650.34;4499688;31;34542;-81
2022/03/11 01:58:06;;;;;;;;;;;;;;;4.83;25.24;100653.50;4498546;31;33809;-79
2022/03/11 02:00:39;;;;;;;;;;;;;;;4.36;25.90;100650.66;4491149;31;34393;-80
2022/03/11 02:03:07;;;;;;;;;;;;;;;4.06;26.14;100650.53;4495832;31;34203;-80
2022/03/11 02:05:35;;;;;;;;;;;;;;;3.20;27.61;100658.66;4499563;31;33676;-80
2022/03/11 02:08:02;;;;;;;;;;;;;;;4.30;26.23;100651.16;4498858;31;33654;-80
2022/03/11 02:10:30;;;;;;;;;;;;;;;3.77;26.75;100658.06;4498807;31;34467;-80
2022/03/11 02:12:57;;;;;;;;;;;;;;;3.97;26.20;100656.75;4499067;31;34615;-79
2022/03/11 02:15:25;;;;;;;;;;;;;;;4.33;26.19;100646.22;4499294;31;33371;-80
2022/03/11 02:17:53;;;;;;;;;;;;;;;4.98;25.73;100652.66;4492343;31;34343;-80
2022/03/11 02:20:22;;;;;;;;;;;;;;;4.92;25.50;100650.59;4499347;31;35283;-80
2022/03/11 02:22:52;;;;;;;;;;;;;;;4.39;25.72;100664.56;4499161;31;34270;-79
2022/03/11 02:25:19;;;;;;;;;;;;;;;4.45;25.80;100666.63;4499306;31;33691;-80
2022/03/11 02:27:47;;;;;;;;;;;;;;;5.20;24.95;100659.94;4499123;31;33957;-79
2022/03/11 02:30:18;;;;;;;;;;;;;;;4.63;25.20;100660.03;4498927;31;35307;-81
2022/03/11 02:32:45;;;;;;;;;;;;;;;5.47;25.01;100651.22;4493436;31;34361;-82
2022/03/11 02:35:13;;;;;;;;;;;;;;;6.21;24.71;100653.66;4498319;31;34526;-78
2022/03/11 02:37:40;;;;;;;;;;;;;;;6.61;24.17;100644.56;4498552;31;34371;-81
2022/03/11 02:40:08;;;;;;;;;;;;;;;6.25;24.64;100652.09;4498954;31;33844;-80
2022/03/11 02:42:35;;;;;;;;;;;;;;;6.80;24.12;100645.59;4498917;31;33710;-78
2022/03/11 02:45:05;;;;;;;;;;;;;;;6.91;24.08;100642.69;4499152;31;33346;-81
2022/03/11 02:47:32;;;;;;;;;;;;;;;6.94;24.03;100640.25;4498453;31;34388;-79
2022/03/11 02:50:00;;;;;;;;;;;;;;;6.71;24.68;100634.81;4498719;31;35196;-80
2022/03/11 02:52:28;;;;;;;;;;;;;;;6.58;24.45;100648.72;4499212;31;34225;-79
2022/03/11 02:54:58;;;;;;;;;;;;;;;4.56;26.85;100657.87;4499402;31;33464;-80
2022/03/11 02:57:25;;;;;;;;;;;;;;;5.50;25.96;100655.66;4498020;31;34049;-78
2022/03/11 02:59:53;;;;;;;;;;;;;;;6.06;25.36;100658.84;4497689;31;34535;-81
2022/03/11 03:02:20;;;;;;;;;;;;;;;6.12;25.08;100647.09;4499033;31;34551;-80
2022/03/11 03:04:49;;;;;;;;;;;;;;;6.17;25.46;100645.66;4498621;31;34381;-80
2022/03/11 03:07:16;;;;;;;;;;;;;;;6.47;25.08;100652.44;4498788;31;34028;-80
2022/03/11 03:09:43;;;;;;;;;;;;;;;6.40;25.48;100652.03;4498779;31;34413;-81
2022/03/11 03:12:10;;;;;;;;;;;;;;;6.51;25.34;100649.22;4498740;31;35113;-80
2022/03/11 03:14:38;;;;;;;;;;;;;;;6.43;25.12;100652.19;4498725;31;33677;-80
2022/03/11 03:17:05;;;;;;;;;;;;;;;6.43;25.25;100645.34;4498617;31;34889;-80
2022/03/11 03:19:35;;;;;;;;;;;;;;;6.47;24.58;100642.12;4497662;31;34272;-80
2022/03/11 03:22:03;;;;;;;;;;;;;;;6.24;25.12;100655.47;4499250;31;34176;-80
2022/03/11 03:24:31;;;;;;;;;;;;;;;5.83;25.31;100656.63;4498217;31;33386;-79
2022/03/11 03:26:58;;;;;;;;;;;;;;;6.15;25.23;100655.00;4494864;31;33873;-80
2022/03/11 03:29:25;;;;;;;;;;;;;;;6.44;25.16;100659.12;4498832;31;35253;-79
2022/03/11 03:31:57;;;;;;;;;;;;;;;6.39;25.08;100643.41;4498795;31;35105;-78
2022/03/11 03:34:26;;;;;;;;;;;;;;;6.03;25.41;100637.19;4498750;31;33759;-80
2022/03/11 03:36:53;;;;;;;;;;;;;;;5.98;25.40;100641.19;4497907;31;34169;-81
2022/03/11 03:39:20;;;;;;;;;;;;;;;5.30;26.11;100640.00;4498901;31;34217;-80
2022/03/11 03:41:52;;;;;;;;;;;;;;;5.46;26.21;100646.00;4498644;31;34557;-81
2022/03/11 03:44:19;;;;;;;;;;;;;;;6.01;25.27;100642.25;4496880;31;33339;-80
2022/03/11 03:46:46;;;;;;;;;;;;;;;6.24;25.23;100637.44;4498489;31;35049;-80
2022/03/11 03:49:14;;;;;;;;;;;;;;;6.22;25.13;100637.37;4499074;31;34130;-81
2022/03/11 03:51:41;;;;;;;;;;;;;;;6.14;25.12;100638.66;4498375;31;35324;-80
2022/03/11 03:54:11;;;;;;;;;;;;;;;6.11;25.08;100633.34;4497738;31;34377;-81
2022/03/11 03:56:39;;;;;;;;;;;;;;;5.59;26.10;100643.31;4498217;31;34171;-80
2022/03/11 03:59:07;;;;;;;;;;;;;;;5.79;26.01;100642.72;4498836;31;34512;-80
2022/03/11 04:01:38;;;;;;;;;;;;;;;5.71;26.13;100654.28;4496938;31;34566;-79
2022/03/11 04:04:06;;;;;;;;;;;;;;;6.13;25.51;100657.47;4497586;31;33636;-79
2022/03/11 04:06:33;;;;;;;;;;;;;;;5.60;25.61;100647.63;4498048;31;35063;-79
2022/03/11 04:09:01;;;;;;;;;;;;;;;5.77;25.59;100651.19;4497119;31;35166;-80
2022/03/11 04:11:28;;;;;;;;;;;;;;;5.83;26.14;100651.50;4480593;32;35196;-80
2022/03/11 04:13:56;;;;;;;;;;;;;;;4.79;27.02;100666.09;4491130;31;33755;-81
2022/03/11 04:16:23;;;;;;;;;;;;;;;5.32;26.65;100658.94;4496776;31;35095;-80
2022/03/11 04:18:51;;;;;;;;;;;;;;;5.75;26.22;100661.38;4485621;31;35272;-80
2022/03/11 04:21:18;;;;;;;;;;;;;;;5.64;26.27;100665.03;4497245;31;35220;-81
2022/03/11 04:23:47;;;;;;;;;;;;;;;6.29;25.31;100666.94;4495722;31;33113;-79
2022/03/11 04:26:15;;;;;;;;;;;;;;;5.07;26.74;100664.34;4495549;31;35213;-80
2022/03/11 04:28:42;;;;;;;;;;;;;;;5.44;26.51;100668.16;4497475;31;34437;-79
2022/03/11 04:31:12;;;;;;;;;;;;;;;5.56;26.34;100666.28;4496431;31;34144;-82
2022/03/11 04:33:40;;;;;;;;;;;;;;;5.79;26.08;100665.88;4496891;31;34296;-81
2022/03/11 04:36:08;;;;;;;;;;;;;;;5.84;25.83;100673.88;4495106;31;34388;-80
2022/03/11 04:38:37;;;;;;;;;;;;;;;5.98;25.59;100669.50;4496851;31;34227;-81
2022/03/11 04:41:05;;;;;;;;;;;;;;;6.06;25.65;100665.66;4496741;31;34362;-80
2022/03/11 04:43:33;;;;;;;;;;;;;;;5.47;26.80;100666.66;4496578;31;33882;-80
2022/03/11 04:46:01;;;;;;;;;;;;;;;5.71;26.35;100672.28;4496609;31;34024;-82
2022/03/11 04:48:28;;;;;;;;;;;;;;;5.99;25.88;100666.16;4497218;31;35275;-80
2022/03/11 04:50:56;;;;;;;;;;;;;;;5.89;26.01;100680.16;4496426;31;34251;-80
2022/03/11 04:53:23;;;;;;;;;;;;;;;5.69;26.39;100675.59;4497187;31;33690;-81
2022/03/11 04:55:50;;;;;;;;;;;;;;;5.99;26.14;100684.19;4496052;31;33051;-80
2022/03/11 04:58:18;;;;;;;;;;;;;;;5.78;26.31;100682.13;4496685;31;35510;-79
2022/03/11 05:00:45;;;;;;;;;;;;;;;5.85;25.99;100681.66;4496745;31;34266;-80
2022/03/11 05:03:12;;;;;;;;;;;;;;;5.86;26.02;100682.56;4496479;31;33883;-82
2022/03/11 05:05:40;;;;;;;;;;;;;;;5.77;26.38;100676.91;4495678;31;33835;-80
2022/03/11 05:08:07;;;;;;;;;;;;;;;5.60;26.74;100688.81;4469797;31;780143;-79
2022/03/11 05:10:34;;;;;;;;;;;;;;;5.80;26.29;100683.12;4497755;31;34788;-78
2022/03/11 05:13:02;;;;;;;;;;;;;;;5.61;26.29;100693.19;4497227;31;34453;-80
2022/03/11 05:15:29;;;;;;;;;;;;;;;5.81;26.45;100695.19;4496943;31;34866;-79
2022/03/11 05:17:57;;;;;;;;;;;;;;;5.67;26.55;100685.78;4496886;31;35197;-79
2022/03/11 05:20:24;;;;;;;;;;;;;;;5.58;26.88;100686.16;4497575;31;34364;-78
2022/03/11 05:22:51;;;;;;;;;;;;;;;5.82;26.37;100688.34;4495692;31;33561;-81
2022/03/11 05:25:18;;;;;;;;;;;;;;;5.79;26.37;100685.59;4496849;31;34311;-80
2022/03/11 05:27:46;;;;;;;;;;;;;;;6.06;26.14;100687.16;4496241;31;32801;-78
2022/03/11 05:30:13;;;;;;;;;;;;;;;6.21;25.98;100693.94;4496172;31;34199;-79
2022/03/11 05:32:42;;;;;;;;;;;;;;;6.20;25.91;100698.22;4497383;31;33796;-80
2022/03/11 05:35:09;;;;;;;;;;;;;;;6.40;25.55;100699.28;4496427;31;33721;-79
2022/03/11 05:37:36;;;;;;;;;;;;;;;6.10;26.33;100698.53;4499003;31;35212;-82
2022/03/11 05:40:04;;;;;;;;;;;;;;;6.08;26.39;100700.12;4496741;31;34205;-79
2022/03/11 05:42:31;;;;;;;;;;;;;;;6.26;25.98;100706.28;4497026;31;33734;-80
2022/03/11 05:45:02;;;;;;;;;;;;;;;6.21;25.96;100705.16;4495899;31;33942;-80
2022/03/11 05:47:30;;;;;;;;;;;;;;;6.16;26.43;100716.88;4497719;31;35069;-81
2022/03/11 05:49:57;;;;;;;;;;;;;;;6.21;26.37;100712.88;4499871;31;33731;-79
2022/03/11 05:52:25;;;;;;;;;;;;;;;6.39;26.19;100712.97;4498691;31;33235;-80
2022/03/11 05:54:53;;;;;;;;;;;;;;;6.58;25.57;100710.56;4493953;31;34265;-80
2022/03/11 05:57:20;;;;;;;;;;;;;;;6.55;25.19;100706.94;4499272;31;34310;-79
2022/03/11 05:59:47;;;;;;;;;;;;;;;6.55;25.01;100706.94;4498985;31;35408;-80
2022/03/11 06:02:15;;;;;;;;;;;;;;;6.69;24.87;100713.72;4499746;31;33536;-80
2022/03/11 06:04:42;;;;;;;;;;;;;;;6.67;25.09;100722.22;4499186;31;35137;-80
2022/03/11 06:07:10;;;;;;;;;;;;;;;6.14;25.29;100728.78;4499412;31;34576;-80
2022/03/11 06:09:37;;;;;;;;;;;;;;;6.13;25.05;100733.84;4498859;31;34303;-80
2022/03/11 06:12:04;;;;;;;;;;;;;;;5.47;25.77;100740.38;4499439;31;34560;-80
2022/03/11 06:14:31;;;;;;;;;;;;;;;6.11;25.36;100740.59;4498302;31;34879;-80
2022/03/11 06:16:58;;;;;;;;;;;;;;;6.53;25.05;100739.50;4499139;31;34070;-79
2022/03/11 06:19:26;;;;;;;;;;;;;;;6.30;24.95;100733.09;4499450;31;34050;-81
2022/03/11 06:21:57;;;;;;;;;;;;;;;6.48;24.44;100738.37;4499480;31;34369;-80
2022/03/11 06:24:26;;;;;;;;;;;;;;;5.80;25.33;100734.59;4499692;31;34333;-80
2022/03/11 06:26:53;;;;;;;;;;;;;;;6.06;25.34;100748.03;4499307;31;34042;-80
2022/03/11 06:29:21;;;;;;;;;;;;;;;5.41;26.32;100740.88;4499634;31;34157;-80
2022/03/11 06:31:48;;;;;;;;;;;;;;;6.11;25.30;100745.75;4499763;31;33093;-80
2022/03/11 06:34:15;;;;;;;;;;;;;;;5.50;25.89;100749.16;4499572;31;33741;-80
2022/03/11 06:36:45;;;;;;;;;;;;;;;4.85;25.92;100764.09;4499405;31;35398;-81
2022/03/11 06:39:13;;;;;;;;;;;;;;;4.06;27.10;100749.75;4499752;31;34365;-79
2022/03/11 06:41:41;;;;;;;;;;;;;;;4.24;28.14;100750.00;4499471;31;33331;-80
2022/03/11 06:44:08;;;;;;;;;;;;;;;5.06;26.54;100751.66;4499364;31;34069;-81
2022/03/11 06:46:36;;;;;;;;;;;;;;;4.71;27.16;100755.53;4499599;31;33943;-80
2022/03/11 06:49:05;;;;;;;;;;;;;;;2.65;28.90;100755.69;4498839;31;34001;-80
2022/03/11 06:51:32;;;;;;;;;;;;;;;2.18;29.29;100766.91;4499674;31;33547;-80
2022/03/11 06:54:06;;;;;;;;;;;;;;;2.88;29.39;100762.44;4498334;31;34700;-81
2022/03/11 06:56:34;;;;;;;;;;;;;;;1.53;31.20;100774.91;4499477;31;34214;-81
2022/03/11 06:59:06;;;;;;;;;;;;;;;2.71;28.82;100765.50;4498274;31;34223;-81
2022/03/11 07:01:34;;;;;;;;;;;;;;;3.24;27.75;100766.59;4498010;31;33694;-81
2022/03/11 07:04:02;;;;;;;;;;;;;;;2.13;29.23;100773.38;4499063;31;35116;-80
2022/03/11 07:06:30;;;;;;;;;;;;;;;1.50;29.94;100777.25;4499082;31;34112;-80
2022/03/11 07:08:57;;;;;;;;;;;;;;;0.86;31.10;100773.25;4499014;31;34231;-81
2022/03/11 07:11:24;;;;;;;;;;;;;;;1.53;30.18;100774.91;4499317;31;33454;-81
2022/03/11 07:13:51;;;;;;;;;;;;;;;3.20;28.15;100773.97;4499294;31;35088;-81
2022/03/11 07:16:18;;;;;;;;;;;;;;;3.25;27.78;100767.47;4499145;31;35367;-81
2022/03/11 07:18:46;;;;;;;;;;;;;;;3.49;27.13;100768.25;4499039;31;34564;-81
2022/03/11 07:21:13;;;;;;;;;;;;;;;2.47;28.22;100770.69;4499342;31;34445;-81
2022/03/11 07:23:41;;;;;;;;;;;;;;;3.18;27.37;100768.72;4497782;31;34069;-81
2022/03/11 07:26:08;;;;;;;;;;;;;;;2.25;28.35;100775.94;4499426;31;34326;-81
2022/03/11 07:28:35;;;;;;;;;;;;;;;2.48;28.15;100775.00;4499269;31;34172;-81
2022/03/11 07:31:02;;;;;;;;;;;;;;;2.00;28.55;100780.06;4499228;31;33816;-81
2022/03/11 07:33:30;;;;;;;;;;;;;;;1.94;28.62;100786.53;4499039;31;34189;-81
2022/03/11 07:35:57;;;;;;;;;;;;;;;0.77;29.88;100788.75;4497578;31;33959;-82
2022/03/11 07:38:30;;;;;;;;;;;;;;;1.06;30.15;100785.91;4499049;31;34072;-81
2022/03/11 07:40:59;;;;;;;;;;;;;;;1.29;30.04;100786.72;4498109;31;33652;-81
2022/03/11 07:43:26;;;;;;;;;;;;;;;0.70;30.69;100779.72;4495062;31;33262;-81
2022/03/11 07:45:53;;;;;;;;;;;;;;;0.87;30.64;100785.25;4484387;31;34874;-81
2022/03/11 07:48:21;;;;;;;;;;;;;;;1.29;29.92;100785.09;4498741;31;33881;-81
2022/03/11 07:50:48;;;;;;;;;;;;;;;1.24;30.22;100788.94;4498971;31;33532;-81
2022/03/11 07:53:15;;;;;;;;;;;;;;;1.65;29.62;100786.03;4498717;31;34118;-81
2022/03/11 07:55:42;;;;;;;;;;;;;;;1.63;29.16;100788.50;4498723;31;34203;-81
2022/03/11 07:58:10;;;;;;;;;;;;;;;2.63;28.43;100783.75;4498819;31;35256;-81
2022/03/11 08:00:41;;;;;;;;;;;;;;;2.71;28.22;100781.72;4498748;31;33231;-81
2022/03/11 08:03:08;;;;;;;;;;;;;;;1.51;29.42;100786.69;4498734;31;35023;-80
2022/03/11 08:05:36;;;;;;;;;;;;;;;1.78;29.50;100792.94;4498555;31;34329;-81
2022/03/11 08:08:03;;;;;;;;;;;;;;;1.59;30.00;100803.47;4499582;31;34620;-80
2022/03/11 08:10:36;;;;;;;;;;;;;;;1.87;29.68;100794.53;4485133;31;33696;-81
2022/03/11 08:13:23;;;;;;;;;;;;;;;2.78;28.31;100794.19;4498797;31;34661;-80
2022/03/11 08:15:52;;;;;;;;;;;;;;;2.53;28.58;100789.00;4498746;31;34193;-80
2022/03/11 08:18:19;;;;;;;;;;;;;;;3.30;27.60;100782.41;4484121;31;34570;-81
2022/03/11 08:20:49;;;;;;;;;;;;;;;3.37;27.35;100778.53;4484432;31;33736;-81
2022/03/11 08:23:16;;;;;;;;;;;;;;;4.35;26.56;100775.56;4498523;31;33856;-80
2022/03/11 08:25:43;;;;;;;;;;;;;;;5.00;24.81;100770.19;4498363;31;33826;-80
2022/03/11 08:28:12;;;;;;;;;;;;;;;3.60;26.70;100774.97;4498786;31;34301;-81
2022/03/11 08:30:40;;;;;;;;;;;;;;;3.44;26.46;100778.16;4498530;31;33309;-81
2022/03/11 08:33:09;;;;;;;;;;;;;;;3.57;26.84;100777.34;4496930;31;34916;-81
2022/03/11 08:35:57;;;;;;;;;;;;;;;3.83;26.15;100776.50;4498288;31;34280;-80
2022/03/11 08:38:37;;;;;;;;;;;;;;;5.10;25.07;100766.47;4498564;31;34549;-81
2022/03/11 08:41:07;;;;;;;;;;;;;;;6.07;24.20;100755.00;4498821;31;33152;-81
2022/03/11 08:43:35;;;;;;;;;;;;;;;5.24;23.77;100757.00;4498308;31;33627;-80
2022/03/11 08:46:02;;;;;;;;;;;;;;;6.08;23.09;100747.34;4497981;31;34717;-81
2022/03/11 08:48:29;;;;;;;;;;;;;;;5.66;23.25;100755.19;4498327;31;34628;-81
2022/03/11 08:50:56;;;;;;;;;;;;;;;5.44;23.40;100753.91;4498163;31;34503;-81
2022/03/11 08:53:24;;;;;;;;;;;;;;;5.75;23.04;100743.72;4498588;31;34210;-81
2022/03/11 08:55:51;;;;;;;;;;;;;;;5.77;23.20;100748.97;4498277;31;33792;-81
2022/03/11 08:58:19;;;;;;;;;;;;;;;5.69;22.84;100748.53;4497959;31;34335;-81
2022/03/11 09:00:47;;;;;;;;;;;;;;;5.57;23.47;100742.69;4497817;31;34277;-80
2022/03/11 09:03:14;;;;;;;;;;;;;;;5.40;23.34;100740.81;4486718;31;34748;-80
2022/03/11 09:05:42;;;;;;;;;;;;;;;5.16;23.04;100743.72;4481980;32;34069;-80
2022/03/11 09:08:09;;;;;;;;;;;;;;;6.54;22.21;100741.25;4490697;31;34359;-80
2022/03/11 09:10:37;;;;;;;;;;;;;;;4.53;23.58;100754.41;4498199;31;34439;-81
2022/03/11 09:13:04;;;;;;;;;;;;;;;5.91;22.28;100742.00;4483711;31;33525;-81
2022/03/11 09:15:31;;;;;;;;;;;;;;;6.63;21.78;100739.19;4497482;31;34080;-81
2022/03/11 09:17:58;;;;;;;;;;;;;;;6.27;21.69;100733.81;4497870;31;35254;-81
2022/03/11 09:20:26;;;;;;;;;;;;;;;6.44;22.22;100729.59;4497596;31;33352;-81
2022/03/11 09:23:02;;;;;;;;;;;;;;;5.88;21.97;100736.72;4498927;31;34300;-81
2022/03/11 09:25:29;;;;;;;;;;;;;;;5.60;22.52;100722.25;4499867;31;35339;-83
2022/03/11 09:28:04;;;;;;;;;;;;;;;5.48;23.04;100736.97;4499808;31;34733;-81
2022/03/11 09:30:33;;;;;;;;;;;;;;;5.03;23.04;100733.47;4485695;31;33479;-81
2022/03/11 09:33:01;;;;;;;;;;;;;;;6.37;22.30;100722.31;4499602;31;35065;-81
2022/03/11 09:35:29;;;;;;;;;;;;;;;5.98;22.37;100721.00;4499599;31;34959;-81
2022/03/11 09:37:56;;;;;;;;;;;;;;;5.72;22.39;100720.41;4499946;31;33730;-81
2022/03/11 09:40:24;;;;;;;;;;;;;;;6.40;21.88;100716.44;4499562;31;33758;-81
2022/03/11 09:42:51;;;;;;;;;;;;;;;5.73;22.47;100716.13;4499894;31;32894;-82
2022/03/11 09:45:19;;;;;;;;;;;;;;;6.19;22.29;100716.16;4499666;31;33833;-81
2022/03/11 09:47:46;;;;;;;;;;;;;;;6.26;21.22;100711.44;4499610;31;33835;-81
2022/03/11 09:50:15;;;;;;;;;;;;;;;5.94;21.87;100707.06;4498662;31;33326;-82
2022/03/11 09:52:42;;;;;;;;;;;;;;;5.90;22.14;100714.50;4498441;31;34293;-81
2022/03/11 09:55:10;;;;;;;;;;;;;;;5.24;22.65;100709.03;4499421;31;34262;-81
2022/03/11 09:57:38;;;;;;;;;;;;;;;5.67;22.23;100705.47;4499691;31;34441;-81
2022/03/11 10:00:06;;;;;;;;;;;;;;;6.37;22.39;100698.25;4498377;31;33619;-82
2022/03/11 10:02:42;;;;;;;;;;;;;;;6.42;22.03;100700.25;4499651;31;34286;-81
2022/03/11 10:05:12;;;;;;;;;;;;;;;5.35;22.66;100705.41;4499785;31;34077;-82
2022/03/11 10:08:00;;;;;;;;;;;;;;;5.09;22.48;100710.72;4499466;31;33733;-81
2022/03/11 10:10:28;;;;;;;;;;;;;;;5.65;22.51;100701.97;4498262;31;33601;-81
2022/03/11 10:13:12;;;;;;;;;;;;;;;5.34;22.45;100703.66;4499327;31;34890;-83
2022/03/11 10:15:40;;;;;;;;;;;;;;;5.12;22.39;100703.19;4499658;31;34845;-81
2022/03/11 10:18:13;;;;;;;;;;;;;;;6.11;21.76;100690.00;4499484;31;34257;-81
2022/03/11 10:20:42;;;;;;;;;;;;;;;6.28;21.69;100686.62;4498280;31;31354;-81
2022/03/11 10:23:11;;;;;;;;;;;;;;;5.43;22.49;100694.69;4498236;31;34067;-81
2022/03/11 10:25:38;;;;;;;;;;;;;;;6.24;21.49;100689.84;4499141;31;34190;-80
2022/03/11 10:28:10;;;;;;;;;;;;;;;6.42;21.46;100701.97;4498046;31;35321;-84
2022/03/11 10:30:38;;;;;;;;;;;;;;;6.37;21.10;100687.94;4498277;31;33755;-80
2022/03/11 10:33:12;;;;;;;;;;;;;;;7.39;20.92;100688.09;4499382;31;34618;-81
2022/03/11 10:35:42;;;;;;;;;;;;;;;8.64;19.19;100682.88;4498001;31;34250;-82
2022/03/11 10:38:11;;;;;;;;;;;;;;;8.49;18.53;100690.81;4499392;31;34347;-82
2022/03/11 10:40:41;;;;;;;;;;;;;;;8.39;19.10;100672.22;4498024;31;33561;-81
2022/03/11 10:43:19;;;;;;;;;;;;;;;7.96;19.02;100677.97;4499275;31;34272;-80
2022/03/11 10:45:56;;;;;;;;;;;;;;;8.16;18.99;100682.34;4499393;31;34428;-81
2022/03/11 10:48:42;;;;;;;;;;;;;;;7.42;18.68;100671.88;4498140;31;34800;-82
2022/03/11 10:51:20;;;;;;;;;;;;;;;7.04;18.99;100665.69;4499285;31;33133;-81
2022/03/11 10:53:51;;;;;;;;;;;;;;;7.03;19.18;100662.22;4499373;31;33903;-80
2022/03/11 10:56:26;;;;;;;;;;;;;;;6.42;20.12;100666.78;4497798;31;35025;-80
2022/03/11 10:58:53;;;;;;;;;;;;;;;6.86;19.36;100654.41;4497996;31;34512;-81
2022/03/11 11:01:34;;;;;;;;;;;;;;;8.47;19.24;100655.34;4499532;31;33781;-80
2022/03/11 11:04:02;;;;;;;;;;;;;;;7.78;19.33;100640.13;4499366;31;34811;-81
2022/03/11 11:06:29;;;;;;;;;;;;;;;8.24;19.54;100642.25;4497903;31;35347;-80
2022/03/11 11:09:03;;;;;;;;;;;;;;;7.97;18.34;100635.81;4499197;31;34576;-81
2022/03/11 11:11:30;;;;;;;;;;;;;;;8.37;17.96;100645.38;4497725;31;33685;-81
2022/03/11 11:14:05;;;;;;;;;;;;;;;7.88;19.10;100633.69;4499405;31;34303;-81
2022/03/11 11:16:40;;;;;;;;;;;;;;;8.97;18.38;100623.06;4497931;31;34202;-81
2022/03/11 11:19:10;;;;;;;;;;;;;;;8.71;18.50;100628.03;4499104;31;34549;-80
2022/03/11 11:21:39;;;;;;;;;;;;;;;9.11;18.10;100629.72;4499266;31;34343;-81
2022/03/11 11:24:14;;;;;;;;;;;;;;;7.63;17.93;100623.91;4484454;31;34471;-80
2022/03/11 11:26:45;;;;;;;;;;;;;;;8.14;17.66;100624.53;4497564;31;34458;-81
2022/03/11 11:29:12;;;;;;;;;;;;;;;8.46;17.40;100614.81;4497993;31;33705;-81
2022/03/11 11:31:41;;;;;;;;;;;;;;;6.97;17.36;100619.75;4497972;31;34071;-80
2022/03/11 11:34:35;;;;;;;;;;;;;;;7.38;17.32;100624.41;4499219;31;34840;-81
2022/03/11 11:37:03;;;;;;;;;;;;;;;7.18;17.93;100620.84;4497395;31;35130;-80
2022/03/11 11:39:36;;;;;;;;;;;;;;;8.15;18.18;100609.97;4497839;31;33894;-80
2022/03/11 11:42:09;;;;;;;;;;;;;;;7.53;17.42;100611.34;4496577;31;34176;-80
2022/03/11 11:44:43;;;;;;;;;;;;;;;8.66;18.32;100595.91;4498346;31;34305;-80
2022/03/11 11:47:15;;;;;;;;;;;;;;;8.55;17.04;100598.84;4499140;31;34807;-80
2022/03/11 11:49:46;;;;;;;;;;;;;;;8.92;17.13;100590.97;4499065;31;34185;-81
2022/03/11 11:52:27;;;;;;;;;;;;;;;9.13;16.77;100594.44;4499195;31;33370;-80
2022/03/11 11:55:17;;;;;;;;;;;;;;;9.79;16.72;100586.72;4498465;31;33549;-80
2022/03/11 11:57:46;;;;;;;;;;;;;;;9.33;15.53;100571.97;4498876;31;35165;-80
2022/03/11 12:00:31;;;;;;;;;;;;;;;8.50;16.35;100580.53;4499008;31;34173;-81
2022/03/11 12:02:59;;;;;;;;;;;;;;;9.34;15.93;100578.03;4497682;31;31921;-83
2022/03/11 12:05:39;;;;;;;;;;;;;;;9.26;15.94;100577.72;4498114;31;34904;-80
2022/03/11 12:08:07;;;;;;;;;;;;;;;9.93;16.00;100574.31;4498729;31;35272;-80
2022/03/11 12:10:34;;;;;;;;;;;;;;;9.69;15.92;100567.34;4498562;31;35247;-80
2022/03/11 12:13:01;;;;;;;;;;;;;;;9.91;14.86;100573.34;4498737;31;34328;-81
2022/03/11 12:15:32;;;;;;;;;;;;;;;9.82;15.95;100575.59;4498803;31;34210;-81
2022/03/11 12:18:01;;;;;;;;;;;;;;;10.08;15.30;100561.91;4498043;31;34521;-81
2022/03/11 12:20:28;;;;;;;;;;;;;;;9.57;15.18;100563.41;4487969;31;34271;-83
2022/03/11 12:23:05;;;;;;;;;;;;;;;9.65;15.26;100555.09;4498379;31;33855;-81
2022/03/11 12:25:34;;;;;;;;;;;;;;;8.37;16.18;100563.63;4495706;31;34343;-81
2022/03/11 12:28:08;;;;;;;;;;;;;;;8.57;15.85;100558.44;4490432;31;35579;-80
2022/03/11 12:30:38;;;;;;;;;;;;;;;10.23;15.36;100554.69;4498579;31;34972;-79
2022/03/11 12:33:13;;;;;;;;;;;;;;;9.26;16.57;100551.84;4494621;31;33287;-80
2022/03/11 12:35:41;;;;;;;;;;;;;;;9.36;16.89;100556.56;4481676;31;34317;-81
2022/03/11 12:38:12;;;;;;;;;;;;;;;10.57;15.80;100549.84;4493197;31;34378;-81
2022/03/11 12:40:40;;;;;;;;;;;;;;;9.96;15.60;100535.53;4498410;31;33929;-82
2022/03/11 12:43:09;;;;;;;;;;;;;;;10.41;15.15;100536.34;4498227;31;33632;-81
2022/03/11 12:45:40;;;;;;;;;;;;;;;9.67;15.33;100537.94;4494706;31;34699;-81
2022/03/11 12:48:09;;;;;;;;;;;;;;;9.85;15.34;100534.25;4488755;31;34170;-82
2022/03/11 12:50:37;;;;;;;;;;;;;;;10.14;15.42;100528.44;4498834;31;34299;-79
2022/03/11 12:53:06;;;;;;;;;;;;;;;10.46;15.68;100526.16;4488400;31;33610;-79